createdAt,value
2023-02-21T00:02:01.065Z,71.16
2023-02-21T00:04:46.678Z,71.35
2023-02-21T00:07:33.342Z,71.70
2023-02-21T00:10:18.714Z,71.51
2023-02-21T00:13:04.355Z,71.69
2023-02-21T00:15:50.118Z,71.70
2023-02-21T00:18:35.527Z,71.96
2023-02-21T00:21:20.971Z,72.48
2023-02-21T00:24:07.944Z,72.55
2023-02-21T00:26:53.523Z,72.29
2023-02-21T00:29:38.934Z,72.49
2023-02-21T00:32:25.156Z,72.39
2023-02-21T00:35:10.826Z,72.52
2023-02-21T00:37:56.192Z,73.11
2023-02-21T00:40:43.276Z,72.90
2023-02-21T00:43:28.708Z,73.06
2023-02-21T00:46:14.496Z,73.52
2023-02-21T00:49:00.168Z,73.95
2023-02-21T00:51:45.561Z,74.34
2023-02-21T00:54:31.042Z,74.63
2023-02-21T00:57:18.065Z,75.18
2023-02-21T01:00:03.476Z,75.08
2023-02-21T01:02:48.846Z,75.06
2023-02-21T01:05:34.205Z,75.00
2023-02-21T01:08:19.975Z,75.19
2023-02-21T01:11:05.543Z,75.84
2023-02-21T01:13:52.628Z,75.59
2023-02-21T01:16:37.963Z,75.61
2023-02-21T01:19:23.824Z,75.90
2023-02-21T01:22:09.218Z,75.92
2023-02-21T01:24:54.969Z,76.36
2023-02-21T01:27:40.511Z,76.41
2023-02-21T01:30:28.581Z,76.69
2023-02-21T01:33:14.326Z,76.60
2023-02-21T01:35:59.483Z,76.50
2023-02-21T01:38:45.228Z,77.05
2023-02-21T01:41:30.919Z,76.31
2023-02-21T01:44:18.297Z,76.03
2023-02-21T01:47:05.497Z,75.65
2023-02-21T01:49:54.002Z,75.46
2023-02-21T01:52:39.987Z,75.32
2023-02-21T01:55:27.140Z,75.30
2023-02-21T01:58:13.627Z,75.34
2023-02-21T02:01:00.164Z,75.56
2023-02-21T02:03:49.423Z,75.85
2023-02-21T02:06:36.737Z,75.70
2023-02-21T02:09:34.289Z,76.34
2023-02-21T02:12:30.005Z,76.25
2023-02-21T02:15:27.717Z,76.93
2023-02-21T02:18:09.117Z,77.79
2023-02-21T02:21:14.322Z,77.71
2023-02-21T02:24:09.270Z,77.01
2023-02-21T02:27:01.962Z,77.42
2023-02-21T02:29:57.840Z,77.37
2023-02-21T02:32:43.051Z,76.82
2023-02-21T02:35:18.119Z,76.74
2023-02-21T02:37:53.708Z,76.78
2023-02-21T02:40:29.906Z,76.81
2023-02-21T02:43:09.202Z,77.00
2023-02-21T02:45:42.812Z,77.60
2023-02-21T02:48:16.812Z,78.09
2023-02-21T02:50:49.305Z,78.30
2023-02-21T02:53:20.462Z,77.80
2023-02-21T02:55:54.257Z,75.76
2023-02-21T02:58:25.460Z,74.39
2023-02-21T03:01:04.346Z,72.43
2023-02-21T03:03:59.345Z,70.10
2023-02-21T03:06:37.594Z,68.64
2023-02-21T03:09:14.066Z,66.68
2023-02-21T03:11:53.575Z,65.47
2023-02-21T03:14:27.747Z,64.68
2023-02-21T03:17:02.567Z,65.40
2023-02-21T03:19:34.552Z,66.54
2023-02-21T03:22:08.284Z,67.89
2023-02-21T03:24:38.377Z,67.85
2023-02-21T03:27:09.298Z,67.54
2023-02-21T03:29:38.907Z,66.79
2023-02-21T03:32:12.567Z,66.41
2023-02-21T03:34:42.322Z,65.85
2023-02-21T03:37:20.751Z,65.90
2023-02-21T03:39:48.849Z,66.18
2023-02-21T03:42:16.973Z,65.75
2023-02-21T03:44:45.036Z,65.92
2023-02-21T03:47:14.110Z,65.67
2023-02-21T03:49:42.240Z,65.96
2023-02-21T03:52:13.561Z,65.42
2023-02-21T03:54:41.821Z,64.86
2023-02-21T03:57:10.282Z,64.37
2023-02-21T03:59:38.429Z,64.17
2023-02-21T04:02:06.936Z,63.26
2023-02-21T04:04:35.139Z,62.61
2023-02-21T04:07:03.256Z,62.09
2023-02-21T04:09:32.827Z,61.53
2023-02-21T04:12:00.964Z,60.89
2023-02-21T04:14:29.098Z,60.71
2023-02-21T04:16:57.188Z,60.24
2023-02-21T04:19:25.303Z,60.27
2023-02-21T04:21:56.453Z,60.25
2023-02-21T04:24:24.639Z,60.38
2023-02-21T04:26:54.290Z,60.66
2023-02-21T04:29:22.389Z,60.65
2023-02-21T04:31:50.779Z,60.36
2023-02-21T04:34:19.062Z,59.76
2023-02-21T04:36:47.141Z,59.83
2023-02-21T04:39:15.916Z,58.99
2023-02-21T04:41:44.066Z,58.52
2023-02-21T04:44:14.682Z,58.19
2023-02-21T04:46:42.752Z,58.11
2023-02-21T04:49:13.278Z,58.20
2023-02-21T04:51:41.518Z,58.02
2023-02-21T04:54:09.610Z,58.71
2023-02-21T04:56:39.807Z,58.79
2023-02-21T04:59:07.989Z,58.28
2023-02-21T05:01:37.728Z,57.83
2023-02-21T05:04:06.233Z,57.51
2023-02-21T05:06:34.674Z,57.63
2023-02-21T05:09:04.642Z,57.55
2023-02-21T05:11:35.821Z,56.85
2023-02-21T05:14:04.097Z,56.49
2023-02-21T05:16:32.279Z,56.21
2023-02-21T05:19:02.894Z,55.54
2023-02-21T05:21:31.042Z,55.41
2023-02-21T05:23:59.129Z,55.33
2023-02-21T05:26:31.056Z,55.58
2023-02-21T05:28:59.512Z,55.23
2023-02-21T05:31:27.966Z,54.94
2023-02-21T05:33:56.068Z,55.32
2023-02-21T05:36:25.945Z,55.42
2023-02-21T05:38:56.438Z,55.82
2023-02-21T05:41:25.045Z,54.62
2023-02-21T05:43:53.589Z,52.93
2023-02-21T05:46:24.988Z,50.60
2023-02-21T05:48:54.271Z,49.73
2023-02-21T05:51:22.653Z,48.85
2023-02-21T05:53:52.945Z,49.32
2023-02-21T05:56:22.472Z,49.76
2023-02-21T05:58:50.716Z,50.19
2023-02-21T06:01:18.803Z,50.27
2023-02-21T06:03:46.982Z,50.34
2023-02-21T06:06:16.408Z,50.06
2023-02-21T06:08:46.510Z,49.98
2023-02-21T06:11:17.517Z,49.33
2023-02-21T06:13:45.816Z,48.25
2023-02-21T06:16:15.643Z,47.58
2023-02-21T06:18:43.873Z,47.24
2023-02-21T06:21:12.393Z,46.95
2023-02-21T06:23:40.605Z,46.73
2023-02-21T06:26:08.959Z,46.40
2023-02-21T06:28:38.575Z,45.53
2023-02-21T06:31:07.442Z,45.37
2023-02-21T06:33:35.565Z,45.21
2023-02-21T06:36:07.524Z,45.86
2023-02-21T06:38:35.912Z,45.92
2023-02-21T06:41:07.028Z,46.41
2023-02-21T06:43:36.461Z,46.66
2023-02-21T06:46:06.731Z,47.07
2023-02-21T06:48:34.945Z,47.34
2023-02-21T06:51:03.254Z,47.69
2023-02-21T06:53:31.385Z,47.81
2023-02-21T06:55:59.595Z,47.75
2023-02-21T06:58:27.742Z,47.67
2023-02-21T07:00:58.313Z,47.94
2023-02-21T07:03:28.156Z,47.71
2023-02-21T07:05:56.367Z,47.52
2023-02-21T07:08:25.957Z,47.56
2023-02-21T07:10:54.383Z,47.75
2023-02-21T07:13:22.727Z,47.08
2023-02-21T07:15:50.857Z,47.33
2023-02-21T07:18:18.944Z,46.42
2023-02-21T07:20:49.699Z,46.19
2023-02-21T07:23:17.878Z,46.29
2023-02-21T07:25:46.011Z,46.28
2023-02-21T07:28:14.182Z,46.04
2023-02-21T07:30:42.448Z,45.66
2023-02-21T07:33:10.587Z,45.46
2023-02-21T07:35:38.695Z,45.07
2023-02-21T07:38:08.222Z,44.64
2023-02-21T07:40:36.519Z,44.01
2023-02-21T07:43:04.674Z,43.72
2023-02-21T07:45:32.823Z,43.75
2023-02-21T07:48:00.883Z,43.68
2023-02-21T07:50:29.309Z,43.92
2023-02-21T07:52:59.819Z,43.77
2023-02-21T07:55:29.343Z,43.88
2023-02-21T07:57:57.470Z,43.60
2023-02-21T08:00:25.983Z,43.04
2023-02-21T08:02:54.527Z,42.86
2023-02-21T08:05:23.546Z,43.01
2023-02-21T08:07:51.642Z,42.77
2023-02-21T08:10:22.621Z,42.58
2023-02-21T08:12:52.685Z,42.71
2023-02-21T08:15:21.156Z,42.46
2023-02-21T08:17:49.991Z,42.46
2023-02-21T08:20:18.368Z,42.02
2023-02-21T08:22:46.548Z,41.80
2023-02-21T08:25:16.028Z,41.76
2023-02-21T08:27:45.350Z,41.26
2023-02-21T08:30:17.917Z,41.00
2023-02-21T08:32:48.679Z,40.79
2023-02-21T08:35:17.663Z,40.07
2023-02-21T08:37:46.740Z,39.87
2023-02-21T08:40:15.712Z,39.18
2023-02-21T08:42:43.945Z,39.33
2023-02-21T08:45:17.978Z,38.81
2023-02-21T08:47:46.737Z,38.59
2023-02-21T08:50:15.068Z,38.94
2023-02-21T08:52:43.390Z,38.84
2023-02-21T08:55:11.490Z,38.80
2023-02-21T08:57:39.662Z,38.86
2023-02-21T09:00:10.830Z,38.57
2023-02-21T09:02:41.108Z,38.45
2023-02-21T09:05:10.352Z,38.37
2023-02-21T09:07:38.408Z,38.04
2023-02-21T09:10:09.918Z,38.39
2023-02-21T09:12:38.028Z,38.13
2023-02-21T09:15:07.027Z,38.33
2023-02-21T09:17:35.508Z,37.78
2023-02-21T09:20:07.744Z,38.06
2023-02-21T09:22:36.344Z,38.67
2023-02-21T09:25:05.316Z,38.09
2023-02-21T09:27:47.251Z,38.39
2023-02-21T09:30:19.568Z,38.29
2023-02-21T09:32:48.577Z,38.25
2023-02-21T09:35:18.493Z,37.80
2023-02-21T09:37:48.052Z,37.76
2023-02-21T09:40:25.441Z,37.95
2023-02-21T09:42:56.314Z,37.22
2023-02-21T09:45:25.124Z,37.12
2023-02-21T09:47:57.021Z,37.12
2023-02-21T09:50:31.229Z,37.04
2023-02-21T09:53:00.229Z,36.88
2023-02-21T09:55:31.616Z,36.97
2023-02-21T09:57:59.752Z,36.91
2023-02-21T10:00:34.064Z,36.82
2023-02-21T10:03:20.597Z,36.55
2023-02-21T10:05:59.145Z,36.52
2023-02-21T10:08:37.282Z,36.44
2023-02-21T10:11:22.808Z,35.96
2023-02-21T10:13:57.049Z,35.59
2023-02-21T10:16:30.615Z,35.73
2023-02-21T10:19:07.424Z,35.13
2023-02-21T10:21:41.212Z,34.44
2023-02-21T10:24:14.991Z,34.31
2023-02-21T10:26:48.859Z,33.88
2023-02-21T10:29:24.006Z,34.19
2023-02-21T10:31:55.637Z,33.36
2023-02-21T10:34:26.870Z,33.26
2023-02-21T10:36:59.406Z,33.09
2023-02-21T10:39:34.339Z,32.91
2023-02-21T10:42:02.849Z,32.93
2023-02-21T10:44:45.296Z,32.75
2023-02-21T10:47:26.594Z,33.08
2023-02-21T10:50:02.714Z,33.13
2023-02-21T10:52:38.294Z,32.68
2023-02-21T10:55:20.054Z,32.58
2023-02-21T10:57:57.542Z,32.23
2023-02-21T11:00:36.441Z,31.89
2023-02-21T11:03:08.151Z,31.94
2023-02-21T11:05:39.155Z,32.29
2023-02-21T11:08:10.651Z,31.57
2023-02-21T11:10:42.270Z,31.58
2023-02-21T11:13:17.501Z,31.47
2023-02-21T11:15:46.792Z,31.17
2023-02-21T11:18:18.836Z,31.09
2023-02-21T11:20:47.844Z,30.92
2023-02-21T11:23:23.712Z,31.21
2023-02-21T11:26:00.068Z,30.99
2023-02-21T11:28:28.293Z,30.87
2023-02-21T11:31:15.997Z,30.88
2023-02-21T11:33:50.227Z,30.59
2023-02-21T11:36:21.542Z,30.00
2023-02-21T11:39:05.605Z,29.90
2023-02-21T11:41:39.246Z,29.76
2023-02-21T11:44:25.769Z,29.33
2023-02-21T11:46:59.966Z,29.35
2023-02-21T11:49:39.002Z,28.97
2023-02-21T11:52:12.257Z,29.22
2023-02-21T11:54:41.963Z,29.60
2023-02-21T11:57:18.411Z,29.17
2023-02-21T11:59:53.952Z,29.35
2023-02-21T12:02:47.471Z,29.15
2023-02-21T12:05:31.333Z,29.23
2023-02-21T12:08:17.445Z,29.61
2023-02-21T12:10:54.190Z,29.64
2023-02-21T12:13:38.317Z,29.92
2023-02-21T12:16:22.154Z,30.19
2023-02-21T12:19:07.015Z,30.12
2023-02-21T12:21:56.408Z,29.96
2023-02-21T12:24:36.512Z,29.79
2023-02-21T12:27:15.049Z,30.16
2023-02-21T12:30:05.103Z,29.86
2023-02-21T12:32:45.873Z,29.13
2023-02-21T12:35:40.783Z,28.80
2023-02-21T12:38:13.800Z,28.59
2023-02-21T12:40:53.384Z,28.04
2023-02-21T12:43:39.198Z,28.14
2023-02-21T12:46:17.209Z,28.40
2023-02-21T12:48:53.305Z,28.35
2023-02-21T12:51:24.124Z,28.39
2023-02-21T12:53:56.301Z,28.12
2023-02-21T12:56:30.282Z,28.57
2023-02-21T12:59:04.714Z,28.51
2023-02-21T13:01:36.850Z,27.85
2023-02-21T13:04:18.088Z,27.68
2023-02-21T13:06:53.683Z,27.24
2023-02-21T13:09:33.731Z,27.09
2023-02-21T13:12:09.066Z,27.37
2023-02-21T13:14:44.766Z,27.97
2023-02-21T13:17:16.782Z,28.17
2023-02-21T13:19:49.408Z,28.48
2023-02-21T13:23:12.786Z,28.60
2023-02-21T13:25:53.793Z,28.83
2023-02-21T13:28:24.171Z,28.94
2023-02-21T13:30:55.482Z,28.98
2023-02-21T13:33:28.497Z,29.28
2023-02-21T13:36:00.659Z,29.52
2023-02-21T13:38:32.231Z,29.22
2023-02-21T13:41:10.007Z,29.15
2023-02-21T13:43:46.641Z,29.19
2023-02-21T13:46:59.834Z,28.93
2023-02-21T13:49:55.578Z,28.67
2023-02-21T13:52:59.994Z,28.77
2023-02-21T13:55:36.229Z,28.80
2023-02-21T13:58:35.921Z,29.01
2023-02-21T14:01:47.949Z,28.74
2023-02-21T14:05:01.773Z,28.43
2023-02-21T14:08:00.002Z,28.76
2023-02-21T14:10:46.719Z,28.76
2023-02-21T14:13:24.892Z,29.01
2023-02-21T14:15:59.502Z,29.08
2023-02-21T14:18:30.338Z,28.63
2023-02-21T14:21:00.685Z,28.40
2023-02-21T14:23:42.174Z,28.49
2023-02-21T14:26:40.285Z,28.64
2023-02-21T14:29:15.559Z,28.82
2023-02-21T14:31:55.705Z,28.70
2023-02-21T14:34:33.479Z,28.80
2023-02-21T14:37:07.151Z,29.12
2023-02-21T14:39:38.705Z,28.78
2023-02-21T14:42:35.790Z,28.90
2023-02-21T14:45:21.596Z,29.01
2023-02-21T14:48:35.803Z,29.34
2023-02-21T14:51:43.958Z,28.75
2023-02-21T14:54:44.502Z,29.03
2023-02-21T14:57:48.684Z,29.16
2023-02-21T15:00:29.838Z,29.34
2023-02-21T15:03:06.877Z,29.35
2023-02-21T15:05:41.183Z,29.74
2023-02-21T15:08:17.810Z,30.10
2023-02-21T15:10:47.211Z,30.19
2023-02-21T15:13:24.428Z,30.53
2023-02-21T15:16:00.876Z,30.60
2023-02-21T15:18:31.173Z,30.68
2023-02-21T15:21:17.002Z,31.16
2023-02-21T15:23:47.133Z,30.98
2023-02-21T15:26:22.118Z,31.20
2023-02-21T15:29:06.178Z,31.45
2023-02-21T15:31:37.026Z,31.77
2023-02-21T15:34:05.159Z,31.86
2023-02-21T15:36:34.162Z,31.99
2023-02-21T15:39:08.080Z,31.91
2023-02-21T15:41:41.948Z,32.15
2023-02-21T15:44:15.549Z,32.31
2023-02-21T15:46:51.473Z,32.35
2023-02-21T15:49:22.665Z,32.40
2023-02-21T15:51:51.541Z,32.55
2023-02-21T15:54:30.049Z,32.92
2023-02-21T15:57:09.559Z,32.88
2023-02-21T15:59:38.574Z,32.95
2023-02-21T16:02:17.838Z,33.36
2023-02-21T16:04:47.477Z,34.01
2023-02-21T16:07:21.090Z,33.87
2023-02-21T16:09:51.534Z,33.92
2023-02-21T16:12:32.180Z,34.19
2023-02-21T16:15:02.481Z,34.68
2023-02-21T16:17:35.147Z,34.86
2023-02-21T16:20:16.721Z,35.19
2023-02-21T16:23:06.791Z,35.43
2023-02-21T16:25:35.719Z,35.01
2023-02-21T16:28:12.791Z,35.22
2023-02-21T16:30:40.944Z,35.54
2023-02-21T16:33:15.806Z,35.51
2023-02-21T16:35:44.817Z,35.58
2023-02-21T16:38:16.124Z,35.74
2023-02-21T16:40:44.449Z,35.69
2023-02-21T16:43:19.618Z,35.77
2023-02-21T16:45:49.665Z,35.43
2023-02-21T16:48:21.831Z,35.64
2023-02-21T16:50:51.598Z,35.69
2023-02-21T16:53:20.837Z,35.61
2023-02-21T16:55:50.147Z,35.79
2023-02-21T16:58:25.062Z,35.88
2023-02-21T17:00:55.247Z,35.89
2023-02-21T17:03:25.260Z,35.88
2023-02-21T17:05:54.461Z,35.92
2023-02-21T17:08:24.551Z,36.04
2023-02-21T17:10:52.741Z,36.09
2023-02-21T17:13:20.954Z,36.10
2023-02-21T17:15:49.192Z,36.21
2023-02-21T17:18:17.590Z,36.04
2023-02-21T17:20:47.109Z,35.90
2023-02-21T17:23:15.328Z,35.91
2023-02-21T17:25:43.552Z,35.78
2023-02-21T17:28:11.716Z,35.91
2023-02-21T17:30:39.780Z,36.17
2023-02-21T17:33:09.520Z,36.13
2023-02-21T17:35:37.713Z,36.00
2023-02-21T17:38:07.401Z,35.96
2023-02-21T17:40:35.633Z,36.01
2023-02-21T17:43:07.703Z,36.18
2023-02-21T17:45:37.313Z,35.91
2023-02-21T17:48:06.560Z,36.07
2023-02-21T17:50:35.125Z,36.01
2023-02-21T17:53:03.443Z,36.08
2023-02-21T17:55:33.368Z,35.75
2023-02-21T17:58:02.158Z,35.65
2023-02-21T18:00:34.270Z,35.71
2023-02-21T18:03:04.330Z,35.54
2023-02-21T18:05:32.736Z,35.22
2023-02-21T18:08:00.951Z,35.51
2023-02-21T18:10:29.084Z,35.47
2023-02-21T18:12:58.677Z,35.56
2023-02-21T18:15:29.044Z,36.02
2023-02-21T18:17:58.589Z,36.08
2023-02-21T18:20:26.805Z,35.68
2023-02-21T18:22:54.905Z,35.58
2023-02-21T18:25:24.314Z,35.92
2023-02-21T18:27:52.670Z,35.84
2023-02-21T18:30:22.663Z,35.71
2023-02-21T18:32:51.108Z,35.78
2023-02-21T18:35:20.502Z,35.71
2023-02-21T18:37:49.000Z,35.75
2023-02-21T18:40:19.125Z,35.85
2023-02-21T18:42:48.359Z,35.91
2023-02-21T18:45:16.566Z,35.67
2023-02-21T18:47:47.156Z,35.75
2023-02-21T18:50:15.316Z,35.65
2023-02-21T18:52:43.448Z,35.67
2023-02-21T18:55:12.688Z,35.57
2023-02-21T18:57:40.818Z,35.72
2023-02-21T19:00:11.045Z,35.75
2023-02-21T19:02:39.163Z,35.73
2023-02-21T19:05:09.157Z,35.73
2023-02-21T19:07:37.914Z,35.80
2023-02-21T19:10:06.746Z,35.82
2023-02-21T19:12:34.865Z,35.74
2023-02-21T19:15:03.038Z,35.68
2023-02-21T19:17:31.301Z,35.65
2023-02-21T19:20:00.685Z,36.20
2023-02-21T19:22:30.145Z,35.61
2023-02-21T19:24:58.458Z,35.73
2023-02-21T19:27:26.639Z,35.96
2023-02-21T19:29:55.172Z,35.80
2023-02-21T19:32:24.252Z,35.86
2023-02-21T19:34:53.308Z,36.28
2023-02-21T19:37:22.345Z,36.25
2023-02-21T19:39:51.892Z,36.50
2023-02-21T19:42:20.304Z,36.87
2023-02-21T19:44:48.510Z,37.20
2023-02-21T19:47:16.669Z,37.27
2023-02-21T19:49:46.191Z,37.44
2023-02-21T19:52:15.371Z,37.31
2023-02-21T19:54:43.548Z,37.61
2023-02-21T19:57:13.151Z,37.50
2023-02-21T19:59:41.285Z,37.58
2023-02-21T20:02:12.405Z,37.71
2023-02-21T20:04:41.493Z,37.93
2023-02-21T20:07:09.572Z,37.88
2023-02-21T20:09:38.357Z,37.96
2023-02-21T20:12:07.458Z,37.91
2023-02-21T20:14:38.417Z,38.16
2023-02-21T20:17:07.602Z,37.91
2023-02-21T20:19:35.859Z,38.36
2023-02-21T20:22:05.109Z,38.37
2023-02-21T20:24:34.057Z,38.36
2023-02-21T20:27:02.529Z,39.01
2023-02-21T20:29:30.789Z,38.88
2023-02-21T20:32:03.365Z,38.82
2023-02-21T20:34:32.830Z,38.90
2023-02-21T20:37:01.237Z,38.70
2023-02-21T20:39:31.792Z,38.71
2023-02-21T20:42:06.568Z,38.99
2023-02-21T20:44:36.261Z,39.75
2023-02-21T20:47:06.955Z,40.15
2023-02-21T20:49:35.364Z,40.50
2023-02-21T20:52:03.680Z,40.49
2023-02-21T20:54:31.808Z,41.01
2023-02-21T20:57:00.182Z,40.88
2023-02-21T20:59:30.734Z,41.46
2023-02-21T21:01:59.542Z,41.25
2023-02-21T21:04:31.756Z,41.54
2023-02-21T21:07:02.651Z,41.48
2023-02-21T21:09:34.314Z,41.50
2023-02-21T21:12:03.258Z,41.89
2023-02-21T21:14:32.499Z,42.05
2023-02-21T21:17:02.307Z,42.67
2023-02-21T21:19:34.435Z,42.88
2023-02-21T21:22:03.683Z,43.23
2023-02-21T21:24:33.546Z,43.28
2023-02-21T21:27:08.540Z,43.56
2023-02-21T21:29:38.035Z,43.27
2023-02-21T21:32:09.444Z,43.40
2023-02-21T21:34:42.126Z,43.63
2023-02-21T21:37:10.516Z,43.60
2023-02-21T21:39:39.206Z,43.46
2023-02-21T21:42:09.923Z,43.64
2023-02-21T21:44:39.697Z,44.00
2023-02-21T21:47:08.113Z,43.72
2023-02-21T21:49:38.404Z,43.81
2023-02-21T21:52:06.711Z,44.10
2023-02-21T21:54:36.343Z,44.00
2023-02-21T21:57:05.645Z,44.41
2023-02-21T21:59:38.116Z,44.32
2023-02-21T22:02:06.241Z,44.88
2023-02-21T22:04:34.987Z,45.15
2023-02-21T22:07:05.587Z,44.95
2023-02-21T22:09:33.820Z,44.94
2023-02-21T22:12:02.473Z,45.07
2023-02-21T22:14:30.984Z,44.93
2023-02-21T22:16:59.519Z,45.05
2023-02-21T22:19:29.602Z,45.26
2023-02-21T22:21:59.475Z,45.42
2023-02-21T22:24:28.958Z,45.55
2023-02-21T22:26:57.102Z,45.70
2023-02-21T22:29:28.336Z,45.76
2023-02-21T22:31:56.705Z,45.78
2023-02-21T22:34:25.007Z,45.65
2023-02-21T22:36:56.550Z,45.65
2023-02-21T22:39:25.943Z,45.63
2023-02-21T22:41:56.488Z,45.65
2023-02-21T22:44:25.183Z,45.74
2023-02-21T22:46:58.685Z,45.89
2023-02-21T22:49:27.687Z,45.97
2023-02-21T22:51:57.742Z,46.10
2023-02-21T22:54:26.760Z,45.87
2023-02-21T22:57:01.760Z,46.13
2023-02-21T22:59:29.981Z,45.81
2023-02-21T23:01:58.724Z,45.99
2023-02-21T23:04:27.180Z,46.26
2023-02-21T23:06:56.474Z,45.94
2023-02-21T23:09:25.173Z,46.28
2023-02-21T23:11:55.878Z,46.35
2023-02-21T23:14:26.060Z,46.39
2023-02-21T23:16:57.974Z,46.26
2023-02-21T23:19:26.712Z,46.16
2023-02-21T23:21:57.834Z,46.43
2023-02-21T23:24:26.288Z,46.16
2023-02-21T23:26:55.124Z,46.25
2023-02-21T23:29:27.279Z,46.26
2023-02-21T23:32:09.532Z,46.31
2023-02-21T23:34:41.467Z,46.22
2023-02-21T23:37:12.497Z,46.37
2023-02-21T23:39:41.031Z,46.48
2023-02-21T23:42:11.128Z,46.60
2023-02-21T23:44:41.379Z,46.93
2023-02-21T23:47:09.598Z,46.99
2023-02-21T23:49:44.372Z,46.92
2023-02-21T23:52:12.818Z,46.94
2023-02-21T23:54:42.068Z,47.11
2023-02-21T23:57:10.328Z,47.01
2023-02-21T23:59:38.458Z,46.88
